Time;durP1;ratioP1;P1;durP2;ratioP2;P2;SDS_P1;SDS_P2;PMS_P1;PMS_P2;Temp;Humidity;BMP_temperature;BMP_pressure;BME280_temperature;BME280_humidity;BME280_pressure;Samples;Min_cycle;Max_cycle;Signal;HPM_P1;HPM_P2
2022/05/18 00:06:18;;;;;;;1.42;0.70;;;;;;;;;;20911375;28;20218;-75
2022/05/18 00:16:20;;;;;;;2.13;0.90;;;;;;;;;;21008640;22;20288;-70
2022/05/18 00:26:22;;;;;;;3.47;1.05;;;;;;;;;;20990954;28;20596;-70
2022/05/18 00:36:24;;;;;;;1.23;0.80;;;;;;;;;;20990144;28;20212;-70
2022/05/18 00:46:25;;;;;;;1.23;0.88;;;22.30;99.90;;;;;;20988746;28;20272;-70
2022/05/18 00:56:31;;;;;;;1.83;0.80;;;;;;;;;;20988116;28;20555;-70
2022/05/18 01:06:34;;;;;;;1.33;0.73;;;;;;;;;;20987191;28;20223;-70
2022/05/18 01:16:36;;;;;;;0.88;0.60;;;;;;;;;;20984984;28;20286;-70
2022/05/18 01:26:43;;;;;;;1.70;0.80;;;;;;;;;;20983868;28;20275;-70
2022/05/18 01:36:45;;;;;;;2.20;1.10;;;21.80;99.90;;;;;;20981111;28;20262;-70
2022/05/18 01:46:48;;;;;;;4.13;0.85;;;;;;;;;;20985271;28;20258;-70
2022/05/18 01:56:50;;;;;;;2.33;1.02;;;;;;;;;;20984247;28;20283;-70
2022/05/18 02:06:52;;;;;;;1.20;0.68;;;;;;;;;;20984257;28;20628;-70
2022/05/18 02:16:53;;;;;;;2.40;0.80;;;;;;;;;;20993627;28;20203;-70
2022/05/18 02:26:55;;;;;;;1.53;1.00;;;;;;;;;;20997848;28;20265;-70
2022/05/18 02:36:57;;;;;;;0.97;0.70;;;;;;;;;;20999681;28;20236;-70
2022/05/18 02:46:59;;;;;;;2.00;0.80;;;;;;;;;;20998884;28;20638;-70
2022/05/18 02:57:01;;;;;;;2.83;1.00;;;;;;;;;;20997091;28;20649;-70
2022/05/18 03:07:03;;;;;;;1.50;1.20;;;;;;;;;;20997162;28;20215;-70
2022/05/18 03:17:05;;;;;;;1.20;0.80;;;;;;;;;;20996914;28;20215;-70
2022/05/18 03:27:06;;;;;;;1.60;0.87;;;;;;;;;;20993975;28;20236;-70
2022/05/18 03:37:08;;;;;;;1.30;0.80;;;;;;;;;;20994832;28;20254;-70
2022/05/18 03:47:10;;;;;;;1.57;1.00;;;;;;;;;;21015409;28;20214;-70
2022/05/18 03:57:12;;;;;;;2.47;0.80;;;;;;;;;;21079275;28;20208;-71
2022/05/18 04:07:13;;;;;;;2.27;1.00;;;;;;;;;;21076530;28;20224;-70
2022/05/18 04:17:15;;;;;;;2.43;1.07;;;;;;;;;;21075599;28;20214;-70
2022/05/18 04:27:17;;;;;;;2.73;1.00;;;;;;;;;;21043442;28;20215;-70
2022/05/18 04:37:19;;;;;;;2.50;1.17;;;;;;;;;;21050747;28;20262;-70
2022/05/18 04:47:22;;;;;;;4.10;1.00;;;20.50;99.90;;;;;;21052106;28;20269;-70
2022/05/18 04:57:24;;;;;;;3.07;0.83;;;;;;;;;;21073306;28;20198;-70
2022/05/18 05:07:26;;;;;;;1.83;1.00;;;;;;;;;;21000936;28;21051;-70
2022/05/18 05:17:27;;;;;;;2.00;1.10;;;;;;;;;;20987527;28;20208;-70
2022/05/18 05:27:29;;;;;;;3.23;1.10;;;;;;;;;;20989796;28;20573;-70
2022/05/18 05:37:30;;;;;;;3.10;1.43;;;;;;;;;;21040347;28;20265;-69
2022/05/18 05:47:32;;;;;;;2.03;0.90;;;;;;;;;;21069963;28;20231;-70
2022/05/18 05:57:34;;;;;;;1.60;1.23;;;;;;;;;;21068207;28;20198;-70
2022/05/18 06:07:37;;;;;;;2.33;1.20;;;;;;;;;;21067672;28;20258;-70
2022/05/18 06:17:38;;;;;;;1.90;1.20;;;;;;;;;;21068619;28;20689;-70
2022/05/18 06:27:41;;;;;;;1.50;1.00;;;21.80;99.90;;;;;;21066900;28;20220;-70
2022/05/18 06:37:43;;;;;;;3.57;1.40;;;;;;;;;;21064279;28;20202;-70
2022/05/18 06:47:45;;;;;;;5.30;1.15;;;;;;;;;;21052410;28;20668;-70
2022/05/18 06:57:47;;;;;;;3.77;1.90;;;;;;;;;;20975457;28;20212;-71
2022/05/18 07:07:49;;;;;;;2.67;1.57;;;;;;;;;;20992018;28;20235;-70
2022/05/18 07:17:51;;;;;;;3.08;1.73;;;;;;;;;;20993946;28;20253;-70
2022/05/18 07:27:53;;;;;;;1.98;1.25;;;;;;;;;;20989643;28;20213;-70
2022/05/18 07:37:55;;;;;;;2.72;1.30;;;;;;;;;;20994377;28;20322;-70
2022/05/18 07:47:57;;;;;;;1.67;1.00;;;;;;;;;;20995432;28;20255;-70
2022/05/18 07:57:59;;;;;;;1.95;1.05;;;;;;;;;;20991589;28;20217;-70
2022/05/18 08:08:10;;;;;;;1.55;0.90;;;23.80;99.90;;;;;;20983682;28;20714;-70
2022/05/18 08:18:12;;;;;;;1.23;0.90;;;24.10;99.90;;;;;;20976914;28;20227;-70
2022/05/18 08:28:29;;;;;;;1.52;0.90;;;;;;;;;;20987654;28;20267;-70
2022/05/18 08:38:31;;;;;;;1.02;0.73;;;;;;;;;;20986626;28;20201;-70
2022/05/18 08:48:39;;;;;;;2.72;1.00;;;;;;;;;;20986428;28;20269;-70
2022/05/18 08:58:49;;;;;;;2.22;1.02;;;;;;;;;;20986478;28;20201;-70
2022/05/18 09:19:20;;;;;;;1.38;0.80;;;;;;;;;;20986207;28;20240;-70
2022/05/18 09:29:51;;;;;;;1.20;0.70;;;;;;;;;;20976311;28;20704;-70
2022/05/18 09:40:03;;;;;;;1.60;0.95;;;26.30;99.90;;;;;;20931562;28;20223;-70
2022/05/18 09:50:06;;;;;;;3.10;1.02;;;;;;;;;;20983007;28;20218;-71
2022/05/18 10:00:17;;;;;;;0.88;0.65;;;26.90;94.60;;;;;;20982119;28;20204;-71
2022/05/18 10:10:21;;;;;;;2.53;0.63;;;27.10;88.10;;;;;;20981845;28;20223;-71
2022/05/18 10:20:23;;;;;;;0.90;0.63;;;;;;;;;;20981614;28;20263;-71
2022/05/18 10:30:34;;;;;;;1.38;0.73;;;;;;;;;;20983986;28;20208;-71
2022/05/18 10:40:36;;;;;;;5.50;0.73;;;;;;;;;;20995131;28;20262;-71
2022/05/18 10:50:39;;;;;;;2.10;0.90;;;;;;;;;;20998530;28;20269;-70
2022/05/18 11:01:09;;;;;;;0.90;0.50;;;28.00;91.90;;;;;;20961823;28;20213;-70
2022/05/18 11:11:26;;;;;;;1.60;0.70;;;28.30;80.80;;;;;;20915532;28;20281;-71
2022/05/18 11:22:17;;;;;;;1.10;0.50;;;28.40;86.40;;;;;;20913499;28;20235;-71
2022/05/18 11:32:32;;;;;;;0.50;0.40;;;;;;;;;;20906368;28;20227;-70
2022/05/18 11:42:34;;;;;;;0.70;0.47;;;;;;;;;;20925766;28;20276;-70
2022/05/18 11:52:36;;;;;;;2.50;0.52;;;;;;;;;;20980718;28;20220;-70
2022/05/18 12:02:52;;;;;;;1.95;0.40;;;;;;;;;;20991193;28;20213;-70
2022/05/18 12:12:56;;;;;;;1.42;0.65;;;;;;;;;;20990269;28;20220;-70
2022/05/18 12:22:59;;;;;;;1.85;0.47;;;;;;;;;;20989643;28;20695;-70
2022/05/18 12:33:03;;;;;;;2.08;0.73;;;;;;;;;;20988262;28;20224;-70
2022/05/18 12:43:14;;;;;;;2.05;0.40;;;29.70;68.30;;;;;;20988146;28;20221;-70
2022/05/18 12:53:21;;;;;;;0.90;0.40;;;;;;;;;;20985301;28;20736;-70
2022/05/18 13:03:24;;;;;;;0.95;0.50;;;;;;;;;;20986751;28;20250;-70
2022/05/18 13:13:34;;;;;;;0.90;0.50;;;30.10;73.70;;;;;;20981105;28;20216;-70
2022/05/18 13:23:40;;;;;;;1.17;0.50;;;;;;;;;;20987349;28;20216;-71
2022/05/18 13:34:01;;;;;;;0.47;0.40;;;30.30;76.70;;;;;;20985930;28;20235;-71
2022/05/18 13:44:05;;;;;;;1.00;0.60;;;30.20;77.40;;;;;;20986993;28;20247;-70
2022/05/18 13:54:16;;;;;;;1.15;0.50;;;30.00;76.30;;;;;;20967364;28;20240;-70
2022/05/18 14:04:21;;;;;;;0.77;0.50;;;;;;;;;;20900352;28;20703;-70
2022/05/18 14:14:23;;;;;;;0.82;0.40;;;;;;;;;;20897681;28;20673;-71
2022/05/18 14:24:32;;;;;;;0.63;0.43;;;30.50;75.80;;;;;;20899642;28;20202;-70
2022/05/18 14:34:37;;;;;;;1.65;0.40;;;;;;;;;;20896216;28;20225;-71
2022/05/18 14:45:10;;;;;;;1.10;0.40;;;30.70;75.20;;;;;;20897167;28;20287;-71
2022/05/18 14:55:14;;;;;;;0.63;0.50;;;;;;;;;;20938175;28;20386;-70
2022/05/18 15:05:20;;;;;;;1.35;0.40;;;31.00;75.50;;;;;;20972598;28;20365;-71
2022/05/18 15:15:29;;;;;;;1.35;0.52;;;;;;;;;;20975760;28;20256;-70
2022/05/18 15:25:31;;;;;;;1.13;0.30;;;;;;;;;;20976494;28;20286;-70
2022/05/18 15:35:33;;;;;;;1.75;0.50;;;;;;;;;;20986873;28;20333;-70
2022/05/18 15:45:35;;;;;;;0.68;0.40;;;;;;;;;;20982552;28;20217;-71
2022/05/18 15:55:36;;;;;;;1.38;0.55;;;;;;;;;;20981161;28;20773;-71
2022/05/18 16:05:39;;;;;;;0.82;0.50;;;;;;;;;;20988152;28;20221;-70
2022/05/18 16:15:40;;;;;;;1.00;0.45;;;;;;;;;;20985054;28;20633;-70
2022/05/18 16:25:43;;;;;;;0.95;0.43;;;;;;;;;;20988529;28;20486;-70
2022/05/18 16:35:44;;;;;;;0.65;0.40;;;;;;;;;;21044888;28;20234;-70
2022/05/18 16:45:46;;;;;;;4.35;2.70;;;;;;;;;;21033543;28;20232;-70
2022/05/18 16:55:48;;;;;;;0.80;0.47;;;;;;;;;;20954286;28;20240;-69
2022/05/18 17:06:07;;;;;;;2.03;0.50;;;;;;;;;;20890885;28;20217;-70
2022/05/18 17:16:09;;;;;;;0.65;0.40;;;;;;;;;;20967953;28;20228;-70
2022/05/18 17:26:13;;;;;;;1.17;0.50;;;;;;;;;;20976033;28;20584;-71
2022/05/18 17:36:15;;;;;;;0.77;0.57;;;;;;;;;;21000339;28;20221;-70
2022/05/18 17:46:16;;;;;;;3.03;0.52;;;;;;;;;;20997339;28;20221;-70
2022/05/18 17:56:20;;;;;;;1.25;0.68;;;;;;;;;;20959082;28;20230;-70
2022/05/18 18:06:22;;;;;;;0.65;0.45;;;;;;;;;;20989540;28;20238;-70
2022/05/18 18:16:26;;;;;;;1.45;0.50;;;29.00;83.80;;;;;;21019997;28;20236;-70
2022/05/18 18:26:29;;;;;;;0.77;0.50;;;;;;;;;;20994492;28;20220;-70
2022/05/18 18:36:35;;;;;;;0.70;0.50;;;;;;;;;;21025461;28;20218;-70
2022/05/18 18:46:37;;;;;;;1.60;0.70;;;;;;;;;;21031465;28;20272;-69
2022/05/18 18:56:39;;;;;;;2.45;0.50;;;;;;;;;;21034842;28;20216;-69
2022/05/18 19:06:45;;;;;;;0.82;0.57;;;;;;;;;;21035207;28;20481;-70
2022/05/18 19:16:49;;;;;;;2.78;0.65;;;;;;;;;;21046856;28;20220;-70
2022/05/18 19:26:51;;;;;;;0.98;0.50;;;;;;;;;;21049977;28;20211;-70
2022/05/18 19:36:53;;;;;;;1.35;0.60;;;;;;;;;;21026786;28;20235;-69
2022/05/18 19:47:14;;;;;;;1.40;0.70;;;;;;;;;;20988311;28;20586;-70
2022/05/18 19:57:18;;;;;;;0.50;0.40;;;;;;;;;;20992824;28;20219;-67
2022/05/18 20:07:20;;;;;;;2.35;0.85;;;;;;;;;;20996307;28;20278;-70
2022/05/18 20:17:21;;;;;;;0.88;0.47;;;;;;;;;;21004660;28;20283;-71
2022/05/18 20:27:23;;;;;;;1.17;0.60;;;;;;;;;;21000035;28;20947;-70
2022/05/18 20:37:25;;;;;;;1.08;0.52;;;;;;;;;;20997166;28;20256;-69
2022/05/18 20:47:32;;;;;;;0.65;0.43;;;27.00;90.20;;;;;;20997045;28;20545;-69
2022/05/18 20:57:36;;;;;;;0.98;0.60;;;;;;;;;;21007651;28;20210;-69
2022/05/18 21:07:38;;;;;;;0.57;0.50;;;;;;;;;;21004456;28;20228;-69
2022/05/18 21:17:40;;;;;;;1.30;0.80;;;;;;;;;;21002146;28;20198;-69
2022/05/18 21:27:43;;;;;;;0.43;0.40;;;26.60;91.80;;;;;;21007783;28;20208;-69
2022/05/18 21:37:45;;;;;;;0.93;0.60;;;;;;;;;;21011107;28;20241;-69
2022/05/18 21:47:47;;;;;;;1.33;0.50;;;;;;;;;;21003785;28;20270;-69
2022/05/18 21:57:54;;;;;;;0.60;0.50;;;26.20;94.80;;;;;;21004321;28;20211;-70
2022/05/18 22:07:58;;;;;;;1.27;0.40;;;;;;;;;;21005248;28;20232;-72
2022/05/18 22:18:00;;;;;;;1.05;0.50;;;;;;;;;;21064285;28;20214;-72
2022/05/18 22:28:06;;;;;;;0.73;0.45;;;26.10;97.00;;;;;;21084742;28;20236;-69
2022/05/18 22:38:08;;;;;;;0.90;0.60;;;;;;;;;;21102653;28;20221;-69
2022/05/18 22:48:10;;;;;;;3.72;0.95;;;25.90;96.10;;;;;;21100123;28;20222;-71
2022/05/18 22:58:12;;;;;;;1.08;0.65;;;;;;;;;;21099107;28;20208;-69
2022/05/18 23:08:15;;;;;;;0.80;0.60;;;;;;;;;;21097456;28;20239;-71
2022/05/18 23:18:18;;;;;;;0.88;0.60;;;25.60;99.70;;;;;;21098926;28;20200;-71
2022/05/18 23:28:19;;;;;;;0.70;0.60;;;;;;;;;;21097350;28;20251;-69
2022/05/18 23:38:24;;;;;;;0.90;0.60;;;;;;;;;;21099400;28;20199;-72
2022/05/18 23:48:27;;;;;;;0.70;0.60;;;;;;;;;;21032863;28;20212;-68
2022/05/18 23:58:30;;;;;;;0.70;0.57;;;;;;;;;;21008111;28;20228;-70
